createdAt,value
2022-11-18T00:00:49.509Z,99247.50
2022-11-18T00:03:19.369Z,99251.16
2022-11-18T00:05:55.483Z,99260.81
2022-11-18T00:08:25.916Z,99262.84
2022-11-18T00:10:54.653Z,99265.38
2022-11-18T00:13:42.183Z,99280.25
2022-11-18T00:16:14.072Z,99277.50
2022-11-18T00:18:42.715Z,99285.59
2022-11-18T00:21:13.665Z,99286.44
2022-11-18T00:23:42.488Z,99282.88
2022-11-18T00:26:14.584Z,99286.19
2022-11-18T00:28:44.167Z,99287.84
2022-11-18T00:31:15.600Z,99285.81
2022-11-18T00:33:44.269Z,99294.41
2022-11-18T00:36:14.533Z,99294.28
2022-11-18T00:38:44.324Z,99301.19
2022-11-18T00:41:16.384Z,99304.53
2022-11-18T00:43:43.837Z,99313.09
2022-11-18T00:46:15.580Z,99312.13
2022-11-18T00:48:45.117Z,99312.13
2022-11-18T00:51:16.927Z,99310.34
2022-11-18T00:53:47.794Z,99326.06
2022-11-18T00:56:16.175Z,99314.56
2022-11-18T00:58:45.595Z,99322.41
2022-11-18T01:01:15.969Z,99323.38
2022-11-18T01:03:46.794Z,99331.22
2022-11-18T01:06:15.653Z,99324.28
2022-11-18T01:08:45.405Z,99334.06
2022-11-18T01:11:30.515Z,99339.44
2022-11-18T01:13:59.345Z,99338.34
2022-11-18T01:16:29.844Z,99340.25
2022-11-18T01:18:59.348Z,99331.81
2022-11-18T01:21:27.853Z,99340.50
2022-11-18T01:23:56.317Z,99346.81
2022-11-18T01:26:24.705Z,99336.44
2022-11-18T01:28:56.810Z,99335.63
2022-11-18T01:31:25.977Z,99345.97
2022-11-18T01:33:55.850Z,99334.56
2022-11-18T01:36:28.392Z,99350.16
2022-11-18T01:38:57.935Z,99337.03
2022-11-18T01:41:28.425Z,99343.94
2022-11-18T01:43:59.714Z,99341.09
2022-11-18T01:46:30.299Z,99347.28
2022-11-18T01:49:07.247Z,99352.41
2022-11-18T01:51:39.272Z,99346.97
2022-11-18T01:54:13.361Z,99355.53
2022-11-18T01:56:47.621Z,99354.47
2022-11-18T01:59:20.924Z,99348.84
2022-11-18T02:01:50.787Z,99352.41
2022-11-18T02:04:23.210Z,99348.72
2022-11-18T02:06:53.059Z,99348.59
2022-11-18T02:09:23.414Z,99352.78
2022-11-18T02:11:54.232Z,99356.22
2022-11-18T02:14:28.003Z,99349.91
2022-11-18T02:17:06.045Z,99356.81
2022-11-18T02:20:06.787Z,99358.34
2022-11-18T02:22:57.681Z,99354.78
2022-11-18T02:25:41.373Z,99360.59
2022-11-18T02:28:43.967Z,99353.47
2022-11-18T02:31:19.614Z,99364.66
2022-11-18T02:33:56.013Z,99358.34
2022-11-18T02:36:29.884Z,99366.06
2022-11-18T02:39:04.828Z,99368.56
2022-11-18T02:41:36.967Z,99367.50
2022-11-18T02:44:09.856Z,99376.91
2022-11-18T02:46:44.731Z,99375.81
2022-11-18T02:49:21.730Z,99378.31
2022-11-18T02:51:51.814Z,99379.19
2022-11-18T02:54:24.928Z,99379.88
2022-11-18T02:56:55.830Z,99379.75
2022-11-18T02:59:24.950Z,99377.94
2022-11-18T03:01:55.071Z,99376.06
2022-11-18T03:04:27.765Z,99384.75
2022-11-18T03:07:06.107Z,99374.03
2022-11-18T03:09:39.441Z,99385.66
2022-11-18T03:12:15.911Z,99396.88
2022-11-18T03:14:52.010Z,99382.94
2022-11-18T03:17:34.719Z,99400.34
2022-11-18T03:20:14.070Z,99398.91
2022-11-18T03:22:50.060Z,99395.56
2022-11-18T03:25:23.588Z,99383.31
2022-11-18T03:28:00.063Z,99398.09
2022-11-18T03:30:31.508Z,99398.69
2022-11-18T03:33:06.484Z,99400.56
2022-11-18T03:35:38.537Z,99396.16
2022-11-18T03:38:13.052Z,99404.56
2022-11-18T03:40:46.626Z,99401.25
2022-11-18T03:43:21.439Z,99409.97
2022-11-18T03:45:56.433Z,99422.84
2022-11-18T03:48:31.443Z,99413.16
2022-11-18T03:51:04.354Z,99401.72
2022-11-18T03:53:38.454Z,99423.06
2022-11-18T03:56:17.180Z,99399.13
2022-11-18T03:58:54.561Z,99412.50
2022-11-18T04:01:31.072Z,99415.50
2022-11-18T04:04:01.458Z,99418.47
2022-11-18T04:06:39.529Z,99430.41
2022-11-18T04:09:14.086Z,99424.91
2022-11-18T04:12:05.391Z,99434.44
2022-11-18T04:14:35.744Z,99438.34
2022-11-18T04:17:11.344Z,99441.69
2022-11-18T04:19:41.871Z,99442.03
2022-11-18T04:22:11.610Z,99441.47
2022-11-18T04:24:40.921Z,99439.09
2022-11-18T04:27:09.974Z,99449.47
2022-11-18T04:29:39.113Z,99446.00
2022-11-18T04:32:09.134Z,99446.97
2022-11-18T04:34:38.630Z,99459.03
2022-11-18T04:37:14.879Z,99460.09
2022-11-18T04:39:43.612Z,99468.19
2022-11-18T04:42:11.984Z,99477.00
2022-11-18T04:44:46.730Z,99468.31
2022-11-18T04:47:15.230Z,99477.97
2022-11-18T04:49:44.175Z,99477.97
2022-11-18T04:52:13.107Z,99485.03
2022-11-18T04:54:43.100Z,99481.31
2022-11-18T04:57:11.826Z,99487.50
2022-11-18T04:59:40.644Z,99483.94
2022-11-18T05:02:09.239Z,99488.47
2022-11-18T05:04:37.852Z,99490.59
2022-11-18T05:07:08.035Z,99490.38
2022-11-18T05:09:37.787Z,99501.56
2022-11-18T05:12:29.389Z,99497.28
2022-11-18T05:14:58.074Z,99505.88
2022-11-18T05:17:26.649Z,99526.50
2022-11-18T05:19:55.232Z,99512.88
2022-11-18T05:22:23.872Z,99519.00
2022-11-18T05:24:53.584Z,99519.09
2022-11-18T05:27:23.967Z,99525.31
2022-11-18T05:29:53.150Z,99521.84
2022-11-18T05:32:21.938Z,99523.75
2022-11-18T05:34:50.584Z,99522.44
2022-11-18T05:37:19.234Z,99530.81
2022-11-18T05:39:47.792Z,99521.84
2022-11-18T05:42:33.812Z,99523.28
2022-11-18T05:45:03.704Z,99528.88
2022-11-18T05:47:53.679Z,99529.22
2022-11-18T05:50:22.529Z,99533.16
2022-11-18T05:52:51.329Z,99543.03
2022-11-18T05:55:22.389Z,99542.56
2022-11-18T05:57:55.766Z,99536.84
2022-11-18T06:00:25.746Z,99545.88
2022-11-18T06:02:57.236Z,99532.25
2022-11-18T06:05:27.643Z,99538.69
2022-11-18T06:07:59.569Z,99540.72
2022-11-18T06:10:33.680Z,99544.41
2022-11-18T06:13:08.354Z,99547.25
2022-11-18T06:15:42.192Z,99550.13
2022-11-18T06:18:14.619Z,99537.69
2022-11-18T06:20:43.934Z,99555.09
2022-11-18T06:23:13.870Z,99558.03
2022-11-18T06:25:43.167Z,99562.53
2022-11-18T06:28:15.623Z,99567.06
2022-11-18T06:30:45.774Z,99569.19
2022-11-18T06:33:14.253Z,99577.19
2022-11-18T06:35:43.801Z,99572.03
2022-11-18T06:38:13.750Z,99578.34
2022-11-18T06:40:45.148Z,99573.44
2022-11-18T06:43:37.857Z,99585.94
2022-11-18T06:46:27.673Z,99597.06
2022-11-18T06:48:58.066Z,99588.25
2022-11-18T06:51:27.598Z,99600.00
2022-11-18T06:53:56.393Z,99605.59
2022-11-18T06:56:25.411Z,99598.78
2022-11-18T06:59:00.919Z,99607.69
2022-11-18T07:01:32.672Z,99611.34
2022-11-18T07:04:02.574Z,99615.44
2022-11-18T07:06:33.685Z,99615.03
2022-11-18T07:09:05.803Z,99622.91
2022-11-18T07:11:35.334Z,99630.75
2022-11-18T07:14:05.193Z,99627.59
2022-11-18T07:16:38.621Z,99625.94
2022-11-18T07:19:12.083Z,99631.59
2022-11-18T07:21:41.477Z,99637.88
2022-11-18T07:24:11.025Z,99645.22
2022-11-18T07:26:39.885Z,99643.88
2022-11-18T07:29:10.413Z,99643.16
2022-11-18T07:31:41.322Z,99639.16
2022-11-18T07:34:12.009Z,99644.50
2022-11-18T07:36:40.767Z,99645.22
2022-11-18T07:39:09.648Z,99651.72
2022-11-18T07:41:41.016Z,99653.63
2022-11-18T07:44:12.943Z,99663.25
2022-11-18T07:46:43.085Z,99661.78
2022-11-18T07:49:13.570Z,99676.72
2022-11-18T07:51:42.421Z,99670.78
2022-11-18T07:54:12.626Z,99684.06
2022-11-18T07:56:41.723Z,99679.88
2022-11-18T07:59:10.745Z,99668.47
2022-11-18T08:01:39.872Z,99669.13
2022-11-18T08:04:12.548Z,99667.72
2022-11-18T08:06:42.026Z,99688.13
2022-11-18T08:09:11.375Z,99693.59
2022-11-18T08:11:41.190Z,99693.06
2022-11-18T08:14:09.656Z,99693.91
2022-11-18T08:16:38.625Z,99701.09
2022-11-18T08:19:07.110Z,99695.88
2022-11-18T08:21:37.228Z,99698.59
2022-11-18T08:24:06.440Z,99708.94
2022-11-18T08:26:35.507Z,99716.91
2022-11-18T08:29:04.512Z,99718.66
2022-11-18T08:31:33.062Z,99729.97
2022-11-18T08:34:04.433Z,99731.41
2022-11-18T08:36:34.474Z,99732.34
2022-11-18T08:39:08.088Z,99735.50
2022-11-18T08:41:39.051Z,99739.19
2022-11-18T08:44:11.783Z,99747.16
2022-11-18T08:46:40.412Z,99742.34
2022-11-18T08:49:09.567Z,99753.63
2022-11-18T08:51:38.194Z,99746.63
2022-11-18T08:54:08.606Z,99761.69
2022-11-18T08:56:37.149Z,99746.19
2022-11-18T08:59:05.867Z,99762.13
2022-11-18T09:01:34.427Z,99756.88
2022-11-18T09:04:02.999Z,99758.78
2022-11-18T09:06:31.696Z,99762.63
2022-11-18T09:09:06.002Z,99772.72
2022-11-18T09:11:37.075Z,99765.25
2022-11-18T09:15:11.808Z,99776.25
2022-11-18T09:16:54.431Z,99779.31
2022-11-18T09:22:12.031Z,99785.91
2022-11-18T09:24:41.205Z,99782.13
2022-11-18T09:27:16.681Z,99777.25
2022-11-18T09:29:46.162Z,99774.78
2022-11-18T09:32:14.934Z,99772.53
2022-11-18T09:34:44.823Z,99777.59
2022-11-18T09:37:13.242Z,99772.88
2022-11-18T09:43:32.420Z,99783.56
2022-11-18T09:46:06.769Z,99788.88
2022-11-18T09:48:56.828Z,99780.56
2022-11-18T09:51:33.320Z,99783.31
2022-11-18T09:54:05.010Z,99781.41
2022-11-18T09:56:35.605Z,99782.03
2022-11-18T09:59:11.109Z,99782.03
2022-11-18T10:01:42.980Z,99791.53
2022-11-18T10:04:17.924Z,99782.72
2022-11-18T10:06:52.030Z,99800.22
2022-11-18T10:09:38.247Z,99790.72
2022-11-18T10:12:21.956Z,99797.22
2022-11-18T10:15:20.026Z,99785.44
2022-11-18T10:21:23.359Z,99807.28
2022-11-18T10:24:02.792Z,99800.63
2022-11-18T10:26:38.629Z,99810.25
2022-11-18T10:29:10.443Z,99819.19
2022-11-18T10:32:05.641Z,99808.47
2022-11-18T10:34:55.086Z,99812.31
2022-11-18T10:37:45.790Z,99807.81
2022-11-18T10:40:27.542Z,99821.31
2022-11-18T10:42:56.944Z,99811.41
2022-11-18T10:45:35.113Z,99808.94
2022-11-18T10:56:07.764Z,99821.59
2022-11-18T11:56:52.670Z,99869.28
2022-11-18T11:59:39.365Z,99883.16
2022-11-18T12:02:48.599Z,99878.94
2022-11-18T12:05:34.564Z,99865.81
2022-11-18T12:08:50.660Z,99866.41
2022-11-18T12:11:38.841Z,99872.06
2022-11-18T12:18:10.815Z,99903.84
2022-11-18T12:24:32.353Z,99881.81
2022-11-18T12:27:08.727Z,99894.53
2022-11-18T12:29:44.239Z,99888.66
2022-11-18T12:32:35.424Z,99898.19
2022-11-18T12:35:43.626Z,99898.22
2022-11-18T12:38:57.645Z,99897.97
2022-11-18T12:42:20.246Z,99901.34
2022-11-18T12:45:40.428Z,99898.31
2022-11-18T12:51:49.442Z,99911.88
2022-11-18T12:54:36.493Z,99914.53
2022-11-18T12:57:23.381Z,99920.25
2022-11-18T13:00:52.882Z,99927.38
2022-11-18T13:03:31.099Z,99919.28
2022-11-18T13:06:10.258Z,99926.53
2022-11-18T13:08:43.782Z,99933.09
2022-11-18T13:11:46.252Z,99921.31
2022-11-18T13:14:35.837Z,99941.28
2022-11-18T13:17:45.036Z,99931.72
2022-11-18T13:20:22.798Z,99941.00
2022-11-18T13:23:10.205Z,99932.69
2022-11-18T13:26:05.704Z,99941.19
2022-11-18T13:29:09.594Z,99943.63
2022-11-18T13:32:14.869Z,99944.06
2022-11-18T13:34:53.615Z,99951.97
2022-11-18T13:37:52.778Z,99949.66
2022-11-18T13:41:04.749Z,99949.09
2022-11-18T13:43:44.084Z,99948.16
2022-11-18T13:46:45.634Z,99953.25
2022-11-18T13:49:25.891Z,99951.72
2022-11-18T13:51:55.750Z,99949.34
2022-11-18T13:54:31.713Z,99955.31
2022-11-18T13:57:51.344Z,99968.44
2022-11-18T14:00:55.684Z,99952.91
2022-11-18T14:03:29.322Z,99970.50
2022-11-18T14:06:00.945Z,99986.13
2022-11-18T14:08:33.365Z,99989.88
2022-11-18T14:11:40.119Z,99978.00
2022-11-18T14:14:34.788Z,99997.47
2022-11-18T14:17:22.146Z,99992.91
2022-11-18T14:19:59.745Z,99995.19
2022-11-18T14:22:32.618Z,99989.06
2022-11-18T14:25:19.961Z,99996.13
2022-11-18T14:27:52.399Z,99981.84
2022-11-18T14:30:58.313Z,100003.25
2022-11-18T14:34:05.535Z,99991.00
2022-11-18T14:36:41.241Z,100009.81
2022-11-18T14:39:28.117Z,100003.09
2022-11-18T14:42:26.162Z,100009.72
2022-11-18T14:44:55.153Z,100011.28
2022-11-18T14:47:30.606Z,100009.50
2022-11-18T14:50:02.919Z,100015.94
2022-11-18T14:52:42.436Z,100022.47
2022-11-18T14:55:13.396Z,100023.44
2022-11-18T14:57:48.474Z,100012.25
2022-11-18T15:00:20.429Z,100038.06
2022-11-18T15:02:50.271Z,100042.47
2022-11-18T15:05:18.912Z,100055.09
2022-11-18T15:07:47.662Z,100048.81
2022-11-18T15:10:24.331Z,100054.06
2022-11-18T15:13:00.707Z,100093.72
2022-11-18T15:15:34.665Z,100078.78
2022-11-18T15:18:05.757Z,100079.38
2022-11-18T15:20:44.568Z,100100.09
2022-11-18T15:23:33.385Z,100081.44
2022-11-18T15:26:20.224Z,100088.13
2022-11-18T15:28:57.033Z,100106.81
2022-11-18T15:31:29.350Z,100105.94
2022-11-18T15:34:14.599Z,100097.81
2022-11-18T15:36:45.130Z,100115.66
2022-11-18T15:43:02.950Z,100108.47
2022-11-18T15:45:39.707Z,100112.38
2022-11-18T15:48:08.623Z,100113.66
2022-11-18T15:50:54.316Z,100127.06
2022-11-18T15:53:23.208Z,100129.69
2022-11-18T15:56:11.744Z,100135.53
2022-11-18T15:58:56.802Z,100139.25
2022-11-18T16:01:29.481Z,100150.00
2022-11-18T16:04:01.455Z,100160.50
2022-11-18T16:06:29.821Z,100161.22
2022-11-18T16:09:00.170Z,100179.53
2022-11-18T16:11:47.406Z,100183.00
2022-11-18T16:14:19.310Z,100194.84
2022-11-18T16:16:50.483Z,100204.75
2022-11-18T16:19:21.050Z,100203.81
2022-11-18T16:21:51.669Z,100213.13
2022-11-18T16:24:22.612Z,100217.41
2022-11-18T16:26:51.964Z,100222.91
2022-11-18T16:29:23.229Z,100233.47
2022-11-18T16:31:54.975Z,100236.69
2022-11-18T16:34:24.877Z,100247.72
2022-11-18T16:36:55.787Z,100251.53
2022-11-18T16:39:26.404Z,100251.00
2022-11-18T16:42:00.746Z,100253.75
2022-11-18T16:44:37.535Z,100266.78
2022-11-18T16:47:14.305Z,100264.03
2022-11-18T16:49:44.776Z,100261.53
2022-11-18T16:52:13.359Z,100261.72
2022-11-18T16:54:45.751Z,100265.50
2022-11-18T16:57:15.576Z,100280.44
2022-11-18T16:59:46.104Z,100272.28
2022-11-18T17:02:15.868Z,100286.56
2022-11-18T17:04:45.654Z,100287.72
2022-11-18T17:07:14.252Z,100295.81
2022-11-18T17:09:42.633Z,100298.44
2022-11-18T17:12:11.962Z,100302.66
2022-11-18T17:14:40.647Z,100303.81
2022-11-18T17:17:10.698Z,100309.50
2022-11-18T17:19:39.186Z,100312.75
2022-11-18T17:22:07.973Z,100309.66
2022-11-18T17:24:36.847Z,100322.16
2022-11-18T17:27:05.547Z,100322.56
2022-11-18T17:29:35.036Z,100336.00
2022-11-18T17:32:03.538Z,100330.22
2022-11-18T17:34:34.173Z,100347.09
2022-11-18T17:37:06.710Z,100356.13
2022-11-18T17:39:36.086Z,100355.47
2022-11-18T17:42:18.205Z,100359.03
2022-11-18T17:44:47.865Z,100360.28
2022-11-18T17:47:16.684Z,100371.09
2022-11-18T17:49:46.674Z,100378.13
2022-11-18T17:52:16.563Z,100390.59
2022-11-18T17:54:45.091Z,100394.16
2022-11-18T17:57:13.559Z,100391.94
2022-11-18T17:59:42.146Z,100398.09
2022-11-18T18:02:13.656Z,100410.59
2022-11-18T18:04:42.688Z,100415.91
2022-11-18T18:07:12.766Z,100414.97
2022-11-18T18:09:41.517Z,100421.44
2022-11-18T18:12:23.866Z,100425.13
2022-11-18T18:14:52.923Z,100420.91
2022-11-18T18:17:22.911Z,100427.25
2022-11-18T18:19:52.333Z,100435.41
2022-11-18T18:22:23.128Z,100432.13
2022-11-18T18:24:52.764Z,100436.53
2022-11-18T18:27:21.837Z,100438.59
2022-11-18T18:29:50.193Z,100445.81
2022-11-18T18:32:18.497Z,100448.53
2022-11-18T18:34:48.119Z,100454.97
2022-11-18T18:37:16.927Z,100451.41
2022-11-18T18:39:48.099Z,100464.97
2022-11-18T18:42:16.684Z,100466.75
2022-11-18T18:45:03.102Z,100471.34
2022-11-18T18:47:31.872Z,100476.88
2022-11-18T18:50:00.418Z,100488.38
2022-11-18T18:52:28.998Z,100491.09
2022-11-18T18:55:00.298Z,100498.84
2022-11-18T18:57:30.721Z,100499.88
2022-11-18T18:59:59.383Z,100511.75
2022-11-18T19:02:28.077Z,100509.31
2022-11-18T19:04:56.621Z,100520.63
2022-11-18T19:07:27.985Z,100526.59
2022-11-18T19:09:56.934Z,100534.94
2022-11-18T19:12:52.002Z,100538.28
2022-11-18T19:15:23.405Z,100545.47
2022-11-18T19:17:52.659Z,100551.00
2022-11-18T19:20:37.004Z,100549.50
2022-11-18T19:23:10.329Z,100568.09
2022-11-18T19:25:39.480Z,100566.66
2022-11-18T19:28:11.872Z,100575.59
2022-11-18T19:30:40.486Z,100572.41
2022-11-18T19:33:09.354Z,100584.75
2022-11-18T19:35:38.697Z,100583.25
2022-11-18T19:38:07.259Z,100586.69
2022-11-18T19:40:36.346Z,100583.41
2022-11-18T19:43:05.028Z,100583.59
2022-11-18T19:45:36.181Z,100593.28
2022-11-18T19:48:04.763Z,100593.44
2022-11-18T19:50:33.397Z,100599.81
2022-11-18T19:53:22.172Z,100600.66
2022-11-18T19:55:55.958Z,100617.34
2022-11-18T19:58:25.260Z,100616.66
2022-11-18T20:00:55.396Z,100631.72
2022-11-18T20:03:23.845Z,100630.94
2022-11-18T20:05:55.651Z,100634.59
2022-11-18T20:08:25.658Z,100639.13
2022-11-18T20:10:54.533Z,100646.97
2022-11-18T20:13:23.431Z,100644.50
2022-11-18T20:15:53.456Z,100654.22
2022-11-18T20:18:25.685Z,100655.31
2022-11-18T20:20:55.428Z,100669.47
2022-11-18T20:23:25.631Z,100670.56
2022-11-18T20:25:54.712Z,100672.44
2022-11-18T20:28:23.195Z,100682.13
2022-11-18T20:30:56.391Z,100672.59
2022-11-18T20:33:28.110Z,100685.66
2022-11-18T20:36:02.879Z,100683.97
2022-11-18T20:38:32.819Z,100684.88
2022-11-18T20:41:03.898Z,100695.53
2022-11-18T20:43:35.427Z,100697.34
2022-11-18T20:46:14.597Z,100700.06
2022-11-18T20:48:49.506Z,100709.81
2022-11-18T20:51:23.967Z,100709.06
2022-11-18T20:53:54.113Z,100710.91
2022-11-18T20:56:26.167Z,100736.31
2022-11-18T20:58:55.398Z,100729.38
2022-11-18T21:01:26.247Z,100734.16
2022-11-18T21:03:59.332Z,100730.69
2022-11-18T21:06:30.361Z,100742.97
2022-11-18T21:09:01.388Z,100754.50
2022-11-18T21:11:32.460Z,100764.22
2022-11-18T21:14:24.324Z,100757.44
2022-11-18T21:16:55.629Z,100767.97
2022-11-18T21:19:28.195Z,100777.72
2022-11-18T21:21:56.903Z,100789.03
2022-11-18T21:24:29.219Z,100772.50
2022-11-18T21:26:59.014Z,100781.41
2022-11-18T21:29:29.524Z,100779.03
2022-11-18T21:31:58.210Z,100770.34
2022-11-18T21:34:28.538Z,100779.09
2022-11-18T21:36:57.212Z,100782.78
2022-11-18T21:39:26.131Z,100777.63
2022-11-18T21:41:57.138Z,100789.00
2022-11-18T21:44:28.737Z,100788.22
2022-11-18T21:46:57.908Z,100797.03
2022-11-18T21:49:28.767Z,100801.66
2022-11-18T21:51:57.302Z,100814.66
2022-11-18T21:54:25.857Z,100807.66
2022-11-18T21:56:54.825Z,100807.81
2022-11-18T21:59:24.357Z,100815.63
2022-11-18T22:01:53.330Z,100826.31
2022-11-18T22:04:38.749Z,100823.78
2022-11-18T22:07:08.622Z,100828.28
2022-11-18T22:09:37.281Z,100826.59
2022-11-18T22:12:08.296Z,100845.78
2022-11-18T22:14:37.326Z,100842.31
2022-11-18T22:17:06.857Z,100838.94
2022-11-18T22:19:35.662Z,100847.63
2022-11-18T22:22:05.339Z,100854.63
2022-11-18T22:24:35.622Z,100857.31
2022-11-18T22:27:09.915Z,100847.75
2022-11-18T22:29:40.052Z,100852.22
2022-11-18T22:32:08.477Z,100868.81
2022-11-18T22:34:37.477Z,100859.41
2022-11-18T22:37:05.908Z,100872.41
2022-11-18T22:39:35.999Z,100875.09
2022-11-18T22:42:22.069Z,100870.84
2022-11-18T22:44:51.086Z,100872.41
2022-11-18T22:47:19.593Z,100874.88
2022-11-18T22:49:52.093Z,100881.03
2022-11-18T22:52:22.067Z,100887.22
2022-11-18T22:54:52.100Z,100893.50
2022-11-18T22:57:20.734Z,100891.94
2022-11-18T22:59:49.085Z,100878.16
2022-11-18T23:02:17.585Z,100886.91
2022-11-18T23:04:46.052Z,100891.50
2022-11-18T23:07:14.720Z,100889.81
2022-11-18T23:09:44.206Z,100898.69
2022-11-18T23:12:31.739Z,100905.69
2022-11-18T23:15:00.326Z,100905.88
2022-11-18T23:17:28.591Z,100904.19
2022-11-18T23:19:57.161Z,100903.28
2022-11-18T23:22:25.819Z,100909.63
2022-11-18T23:24:54.589Z,100919.25
2022-11-18T23:27:24.970Z,100915.81
2022-11-18T23:29:53.668Z,100926.31
2022-11-18T23:32:22.376Z,100929.03
2022-11-18T23:34:50.832Z,100929.03
2022-11-18T23:37:19.581Z,100930.03
2022-11-18T23:39:47.899Z,100931.72
2022-11-18T23:42:16.292Z,100936.09
2022-11-18T23:44:46.616Z,100949.28
2022-11-18T23:47:15.236Z,100953.72
2022-11-18T23:49:43.692Z,100951.25
2022-11-18T23:52:12.890Z,100959.00
2022-11-18T23:54:41.493Z,100960.75
2022-11-18T23:57:09.878Z,100952.94
2022-11-18T23:59:38.161Z,100956.53
